createdAt,value
2023-03-03T00:02:00.789Z,35.50
2023-03-03T00:04:27.970Z,34.67
2023-03-03T00:06:55.113Z,32.57
2023-03-03T00:09:22.261Z,33.33
2023-03-03T00:11:55.019Z,39.07
2023-03-03T00:14:32.733Z,33.93
2023-03-03T00:17:03.082Z,35.17
2023-03-03T00:19:37.821Z,36.43
2023-03-03T00:22:15.855Z,35.03
2023-03-03T00:24:43.006Z,35.20
2023-03-03T00:27:18.700Z,37.63
2023-03-03T00:29:47.376Z,36.10
2023-03-03T00:32:17.478Z,36.67
2023-03-03T00:34:44.955Z,35.63
2023-03-03T00:37:24.508Z,37.40
2023-03-03T00:39:51.799Z,36.27
2023-03-03T00:42:19.505Z,35.27
2023-03-03T00:44:56.751Z,35.03
2023-03-03T00:47:24.605Z,33.60
2023-03-03T00:49:51.898Z,33.50
2023-03-03T00:52:20.005Z,34.23
2023-03-03T00:54:47.239Z,33.07
2023-03-03T00:57:14.499Z,34.50
2023-03-03T00:59:41.795Z,33.23
2023-03-03T01:02:08.986Z,31.43
2023-03-03T01:04:36.244Z,28.93
2023-03-03T01:07:03.816Z,29.63
2023-03-03T01:09:31.051Z,30.27
2023-03-03T01:11:58.346Z,32.50
2023-03-03T01:14:25.554Z,31.40
2023-03-03T01:16:52.766Z,32.47
2023-03-03T01:19:19.980Z,32.67
2023-03-03T01:21:47.168Z,29.93
2023-03-03T01:24:14.368Z,26.37
2023-03-03T01:26:41.534Z,25.37
2023-03-03T01:29:08.710Z,24.43
2023-03-03T01:31:36.195Z,27.87
2023-03-03T01:34:03.417Z,30.27
2023-03-03T01:36:30.679Z,34.17
2023-03-03T01:38:57.871Z,32.60
2023-03-03T01:41:28.938Z,33.63
2023-03-03T01:43:56.082Z,34.43
2023-03-03T01:46:31.959Z,33.10
2023-03-03T01:49:03.708Z,32.90
2023-03-03T01:51:33.068Z,33.60
2023-03-03T01:54:05.332Z,33.70
2023-03-03T01:56:32.561Z,33.43
2023-03-03T01:59:02.173Z,33.00
2023-03-03T02:01:30.642Z,32.00
2023-03-03T02:03:58.040Z,31.37
2023-03-03T02:06:28.240Z,29.80
2023-03-03T02:09:00.359Z,31.43
2023-03-03T02:11:28.321Z,31.97
2023-03-03T02:13:56.860Z,30.80
2023-03-03T02:16:24.321Z,29.70
2023-03-03T02:18:51.494Z,28.43
2023-03-03T02:21:20.424Z,29.27
2023-03-03T02:23:47.554Z,27.93
2023-03-03T02:26:18.737Z,29.27
2023-03-03T02:28:45.795Z,30.13
2023-03-03T02:31:15.624Z,29.63
2023-03-03T02:33:45.110Z,28.80
2023-03-03T02:36:18.197Z,30.93
2023-03-03T02:39:03.863Z,28.80
2023-03-03T02:41:36.964Z,25.90
2023-03-03T02:44:09.080Z,27.07
2023-03-03T02:46:40.921Z,29.47
2023-03-03T02:49:08.911Z,30.53
2023-03-03T02:51:36.551Z,30.60
2023-03-03T02:54:03.778Z,31.93
2023-03-03T02:56:31.259Z,33.63
2023-03-03T02:59:01.208Z,33.50
2023-03-03T03:01:29.627Z,31.43
2023-03-03T03:03:56.997Z,30.73
2023-03-03T03:06:24.462Z,34.20
2023-03-03T03:08:51.631Z,32.73
2023-03-03T03:11:18.753Z,34.83
2023-03-03T03:13:45.882Z,33.40
2023-03-03T03:16:13.120Z,34.50
2023-03-03T03:18:40.300Z,35.80
2023-03-03T03:21:11.504Z,35.93
2023-03-03T03:23:38.754Z,34.87
2023-03-03T03:26:06.653Z,35.30
2023-03-03T03:28:34.075Z,34.30
2023-03-03T03:31:01.697Z,33.13
2023-03-03T03:33:28.945Z,31.03
2023-03-03T03:35:56.624Z,32.37
2023-03-03T03:38:24.456Z,31.67
2023-03-03T03:40:51.613Z,32.27
2023-03-03T03:43:18.789Z,30.70
2023-03-03T03:45:46.242Z,30.70
2023-03-03T03:48:13.712Z,30.93
2023-03-03T03:50:40.953Z,31.73
2023-03-03T03:53:08.379Z,28.50
2023-03-03T03:55:35.824Z,27.90
2023-03-03T03:58:02.931Z,27.23
2023-03-03T04:00:30.100Z,25.87
2023-03-03T04:02:57.575Z,26.03
2023-03-03T04:05:24.980Z,27.50
2023-03-03T04:07:52.115Z,27.60
2023-03-03T04:10:19.375Z,26.93
2023-03-03T04:12:46.567Z,27.37
2023-03-03T04:15:15.216Z,26.27
2023-03-03T04:17:42.533Z,26.70
2023-03-03T04:20:11.335Z,26.90
2023-03-03T04:22:38.468Z,28.23
2023-03-03T04:25:06.267Z,30.07
2023-03-03T04:27:33.833Z,29.27
2023-03-03T04:30:01.181Z,28.47
2023-03-03T04:32:28.594Z,29.67
2023-03-03T04:35:07.017Z,29.63
2023-03-03T04:37:35.176Z,28.97
2023-03-03T04:40:02.395Z,32.40
2023-03-03T04:42:30.089Z,29.90
2023-03-03T04:44:57.263Z,29.13
2023-03-03T04:47:24.465Z,29.60
2023-03-03T04:49:51.563Z,31.10
2023-03-03T04:52:18.720Z,32.23
2023-03-03T04:54:46.105Z,27.17
2023-03-03T04:57:13.295Z,27.63
2023-03-03T04:59:40.528Z,26.13
2023-03-03T05:02:07.777Z,25.23
2023-03-03T05:04:34.970Z,27.10
2023-03-03T05:07:02.390Z,26.43
2023-03-03T05:09:29.544Z,26.33
2023-03-03T05:11:56.731Z,25.77
2023-03-03T05:14:23.907Z,25.03
2023-03-03T05:16:51.135Z,26.50
2023-03-03T05:19:18.285Z,27.07
2023-03-03T05:21:46.116Z,26.73
2023-03-03T05:24:14.181Z,25.43
2023-03-03T05:26:41.994Z,27.13
2023-03-03T05:29:09.863Z,27.63
2023-03-03T05:31:37.112Z,26.13
2023-03-03T05:34:04.253Z,27.60
2023-03-03T05:36:31.395Z,28.27
2023-03-03T05:38:58.527Z,30.13
2023-03-03T05:41:25.679Z,28.77
2023-03-03T05:43:52.857Z,27.83
2023-03-03T05:46:20.069Z,28.87
2023-03-03T05:48:47.236Z,29.33
2023-03-03T05:51:14.601Z,30.03
2023-03-03T05:53:41.752Z,30.63
2023-03-03T05:56:08.962Z,25.87
2023-03-03T05:58:36.201Z,25.03
2023-03-03T06:01:03.410Z,26.73
2023-03-03T06:03:30.575Z,27.03
2023-03-03T06:05:57.698Z,28.07
2023-03-03T06:08:24.917Z,26.63
2023-03-03T06:10:52.045Z,27.53
2023-03-03T06:13:19.221Z,26.73
2023-03-03T06:15:46.408Z,26.30
2023-03-03T06:18:13.635Z,26.17
2023-03-03T06:20:40.823Z,26.83
2023-03-03T06:23:08.003Z,27.97
2023-03-03T06:25:35.698Z,26.67
2023-03-03T06:28:03.738Z,26.00
2023-03-03T06:30:31.115Z,24.67
2023-03-03T06:32:58.723Z,26.10
2023-03-03T06:35:25.938Z,25.33
2023-03-03T06:37:53.169Z,26.43
2023-03-03T06:40:20.395Z,27.13
2023-03-03T06:42:47.597Z,28.23
2023-03-03T06:45:15.242Z,29.47
2023-03-03T06:47:42.562Z,30.50
2023-03-03T06:50:11.458Z,30.17
2023-03-03T06:52:38.942Z,28.07
2023-03-03T06:55:14.097Z,28.17
2023-03-03T06:57:41.398Z,28.53
2023-03-03T07:00:15.752Z,28.33
2023-03-03T07:02:43.301Z,26.30
2023-03-03T07:05:12.308Z,29.03
2023-03-03T07:07:39.476Z,25.80
2023-03-03T07:10:42.056Z,27.97
2023-03-03T07:13:22.921Z,27.40
2023-03-03T07:15:51.130Z,28.63
2023-03-03T07:18:33.838Z,31.87
2023-03-03T07:21:05.250Z,30.77
2023-03-03T07:23:42.460Z,32.30
2023-03-03T07:26:23.079Z,30.07
2023-03-03T07:29:01.203Z,30.77
2023-03-03T07:31:44.608Z,28.00
2023-03-03T07:34:21.331Z,27.53
2023-03-03T07:36:49.545Z,27.53
2023-03-03T07:39:25.549Z,26.23
2023-03-03T07:41:53.321Z,26.13
2023-03-03T07:44:22.436Z,29.50
2023-03-03T07:46:50.620Z,29.73
2023-03-03T07:49:23.767Z,30.47
2023-03-03T07:51:57.431Z,32.33
2023-03-03T07:54:30.725Z,32.07
2023-03-03T07:57:07.874Z,30.90
2023-03-03T07:59:35.974Z,33.10
2023-03-03T08:02:03.232Z,31.53
2023-03-03T08:04:38.209Z,30.77
2023-03-03T08:07:11.538Z,30.53
2023-03-03T08:09:44.888Z,31.87
2023-03-03T08:12:19.373Z,29.73
2023-03-03T08:14:47.509Z,29.97
2023-03-03T08:17:20.795Z,29.17
2023-03-03T08:19:48.625Z,28.83
2023-03-03T08:22:17.453Z,36.77
2023-03-03T08:24:44.635Z,29.90
2023-03-03T08:27:12.112Z,25.97
2023-03-03T08:29:39.688Z,29.23
2023-03-03T08:32:07.172Z,27.10
2023-03-03T08:34:34.482Z,27.10
2023-03-03T08:37:01.730Z,25.40
2023-03-03T08:39:28.862Z,30.13
2023-03-03T08:41:56.438Z,27.30
2023-03-03T08:44:23.675Z,28.73
2023-03-03T08:46:51.514Z,27.97
2023-03-03T08:49:18.964Z,29.10
2023-03-03T08:51:46.210Z,29.03
2023-03-03T08:54:13.563Z,29.63
2023-03-03T08:56:40.747Z,27.60
2023-03-03T08:59:08.274Z,29.43
2023-03-03T09:01:35.667Z,34.57
2023-03-03T09:04:02.891Z,27.90
2023-03-03T09:06:30.046Z,27.97
2023-03-03T09:08:57.324Z,28.73
2023-03-03T09:11:28.655Z,29.03
2023-03-03T09:14:21.984Z,28.23
2023-03-03T09:16:51.440Z,26.70
2023-03-03T09:19:29.952Z,26.53
2023-03-03T09:21:59.786Z,27.83
2023-03-03T09:24:28.377Z,27.10
2023-03-03T09:26:55.760Z,26.03
2023-03-03T09:29:29.052Z,27.13
2023-03-03T09:31:58.759Z,25.80
2023-03-03T09:34:46.470Z,25.70
2023-03-03T09:37:24.211Z,26.77
2023-03-03T09:39:52.379Z,27.20
2023-03-03T09:42:26.153Z,26.87
2023-03-03T09:45:02.295Z,24.77
2023-03-03T09:47:29.448Z,24.33
2023-03-03T09:50:15.715Z,27.17
2023-03-03T09:52:52.192Z,25.47
2023-03-03T09:55:19.401Z,24.90
2023-03-03T09:58:10.991Z,25.10
2023-03-03T10:00:38.512Z,24.07
2023-03-03T10:03:23.977Z,22.97
2023-03-03T10:05:51.363Z,24.33
2023-03-03T10:08:37.706Z,24.17
2023-03-03T10:11:11.472Z,23.80
2023-03-03T10:13:45.689Z,24.63
2023-03-03T10:16:12.906Z,23.33
2023-03-03T10:18:43.073Z,24.03
2023-03-03T10:21:22.853Z,23.27
2023-03-03T10:24:10.281Z,25.33
2023-03-03T10:26:45.828Z,24.50
2023-03-03T10:29:35.257Z,24.63
2023-03-03T10:32:02.896Z,29.53
2023-03-03T10:34:30.455Z,24.03
2023-03-03T10:37:23.524Z,25.40
2023-03-03T10:40:02.640Z,25.07
2023-03-03T10:43:05.505Z,25.60
2023-03-03T10:45:38.714Z,25.37
2023-03-03T10:48:18.116Z,23.83
2023-03-03T10:50:45.270Z,23.43
2023-03-03T10:53:18.432Z,23.47
2023-03-03T10:56:00.997Z,21.47
2023-03-03T10:58:28.229Z,23.33
2023-03-03T11:01:09.675Z,23.23
2023-03-03T11:03:55.609Z,22.63
2023-03-03T11:06:26.423Z,23.67
2023-03-03T11:09:02.168Z,21.70
2023-03-03T11:11:44.653Z,23.00
2023-03-03T11:14:22.772Z,21.67
2023-03-03T11:16:55.854Z,21.93
2023-03-03T11:19:35.726Z,21.47
2023-03-03T11:22:03.295Z,21.53
2023-03-03T11:24:30.409Z,22.47
2023-03-03T11:26:57.559Z,22.83
2023-03-03T11:29:24.729Z,20.03
2023-03-03T11:32:18.389Z,21.17
2023-03-03T11:34:45.513Z,21.40
2023-03-03T11:37:24.350Z,22.70
2023-03-03T11:39:54.067Z,20.70
2023-03-03T11:42:24.055Z,21.07
2023-03-03T11:44:51.209Z,21.37
2023-03-03T11:47:28.534Z,20.87
2023-03-03T11:50:05.860Z,20.63
2023-03-03T11:52:41.124Z,23.60
2023-03-03T11:55:16.470Z,23.10
2023-03-03T11:58:01.047Z,23.10
2023-03-03T12:00:31.478Z,25.17
2023-03-03T12:02:58.743Z,24.03
2023-03-03T12:05:31.337Z,24.73
2023-03-03T12:07:58.543Z,24.73
2023-03-03T12:10:32.375Z,23.93
2023-03-03T12:12:59.555Z,23.87
2023-03-03T12:15:49.197Z,25.37
2023-03-03T12:18:36.613Z,25.43
2023-03-03T12:21:06.833Z,28.83
2023-03-03T12:24:04.773Z,27.87
2023-03-03T12:26:41.112Z,28.40
2023-03-03T12:29:14.730Z,27.97
2023-03-03T12:31:44.951Z,27.97
2023-03-03T12:34:24.493Z,30.50
2023-03-03T12:37:00.152Z,29.40
2023-03-03T12:39:36.547Z,29.50
2023-03-03T12:42:22.432Z,27.17
2023-03-03T12:45:12.747Z,28.03
2023-03-03T12:47:41.891Z,27.30
2023-03-03T12:50:28.022Z,26.93
2023-03-03T12:53:19.307Z,26.43
2023-03-03T12:55:52.362Z,26.00
2023-03-03T12:58:38.441Z,26.33
2023-03-03T13:01:11.968Z,24.53
2023-03-03T13:03:55.319Z,23.90
2023-03-03T13:06:34.326Z,23.70
2023-03-03T13:09:11.779Z,22.47
2023-03-03T13:11:38.927Z,24.13
2023-03-03T13:14:12.144Z,25.50
2023-03-03T13:16:50.011Z,25.57
2023-03-03T13:19:27.046Z,25.20
2023-03-03T13:22:08.510Z,25.43
2023-03-03T13:24:40.163Z,25.90
2023-03-03T13:27:17.128Z,24.90
2023-03-03T13:29:58.865Z,24.98
2023-03-03T13:32:46.260Z,24.40
2023-03-03T13:35:31.680Z,23.77
2023-03-03T13:37:59.251Z,23.95
2023-03-03T13:40:29.756Z,25.70
2023-03-03T13:42:56.989Z,25.35
2023-03-03T13:45:42.954Z,25.90
2023-03-03T13:48:16.316Z,24.40
2023-03-03T13:50:57.910Z,25.60
2023-03-03T13:53:48.790Z,24.33
2023-03-03T13:56:28.427Z,25.38
2023-03-03T13:59:14.502Z,24.35
2023-03-03T14:01:51.545Z,23.17
2023-03-03T14:04:29.604Z,23.00
2023-03-03T14:07:03.658Z,23.88
2023-03-03T14:09:48.766Z,25.58
2023-03-03T14:12:30.951Z,27.02
2023-03-03T14:15:12.404Z,23.40
2023-03-03T14:17:45.836Z,21.25
2023-03-03T14:20:16.133Z,21.08
2023-03-03T14:22:49.081Z,23.02
2023-03-03T14:25:16.424Z,22.33
2023-03-03T14:27:49.017Z,21.67
2023-03-03T14:30:22.046Z,23.23
2023-03-03T14:33:04.065Z,23.23
2023-03-03T14:35:35.315Z,22.83
2023-03-03T14:38:36.209Z,20.70
2023-03-03T14:41:12.227Z,20.80
2023-03-03T14:43:42.021Z,20.02
2023-03-03T14:46:33.584Z,17.17
2023-03-03T14:49:15.250Z,21.85
2023-03-03T14:51:49.826Z,18.95
2023-03-03T14:54:20.941Z,18.08
2023-03-03T14:56:56.130Z,17.23
2023-03-03T14:59:26.748Z,17.45
2023-03-03T15:02:16.225Z,17.13
2023-03-03T15:04:46.921Z,18.15
2023-03-03T15:07:31.804Z,17.33
2023-03-03T15:09:58.582Z,18.38
2023-03-03T15:12:40.644Z,16.88
2023-03-03T15:15:11.500Z,18.50
2023-03-03T15:18:00.321Z,16.70
2023-03-03T15:20:44.045Z,17.38
2023-03-03T15:23:50.703Z,16.88
2023-03-03T15:26:27.205Z,16.50
2023-03-03T15:29:15.466Z,15.75
2023-03-03T15:32:08.098Z,15.55
2023-03-03T15:34:48.898Z,16.30
2023-03-03T15:37:34.051Z,15.05
2023-03-03T15:40:26.955Z,14.18
2023-03-03T15:43:19.580Z,14.23
2023-03-03T15:45:57.876Z,22.27
2023-03-03T15:48:53.869Z,16.00
2023-03-03T15:51:38.508Z,12.63
2023-03-03T15:54:25.392Z,12.95
2023-03-03T15:57:16.488Z,12.15
2023-03-03T16:00:02.954Z,15.68
2023-03-03T16:02:50.522Z,12.17
2023-03-03T16:05:59.697Z,11.27
2023-03-03T16:08:40.290Z,11.07
2023-03-03T16:11:39.050Z,13.43
2023-03-03T16:14:31.826Z,10.70
2023-03-03T16:16:58.977Z,11.47
2023-03-03T16:19:41.208Z,12.90
2023-03-03T16:22:23.645Z,11.00
2023-03-03T16:25:06.018Z,13.80
2023-03-03T16:27:46.925Z,14.37
2023-03-03T16:30:32.439Z,19.23
2023-03-03T16:33:14.578Z,11.77
2023-03-03T16:36:05.224Z,11.07
2023-03-03T16:38:35.368Z,12.00
2023-03-03T16:41:05.599Z,11.43
2023-03-03T16:43:35.820Z,10.27
2023-03-03T16:46:12.607Z,12.60
2023-03-03T16:49:00.678Z,14.77
2023-03-03T16:51:27.962Z,12.20
2023-03-03T16:53:55.126Z,10.47
2023-03-03T16:56:25.109Z,13.37
2023-03-03T16:58:52.273Z,11.23
2023-03-03T17:01:42.462Z,10.53
2023-03-03T17:04:15.484Z,11.50
2023-03-03T17:06:45.454Z,10.47
2023-03-03T17:09:39.552Z,10.37
2023-03-03T17:12:20.428Z,11.23
2023-03-03T17:14:54.985Z,11.33
2023-03-03T17:17:31.439Z,11.70
2023-03-03T17:20:12.425Z,38.00
2023-03-03T17:22:58.720Z,11.47
2023-03-03T17:25:45.599Z,11.13
2023-03-03T17:28:15.482Z,10.27
2023-03-03T17:30:42.745Z,10.27
2023-03-03T17:33:15.841Z,9.73
2023-03-03T17:36:06.173Z,9.73
2023-03-03T17:38:33.308Z,10.07
2023-03-03T17:41:03.497Z,10.40
2023-03-03T17:43:36.585Z,11.03
2023-03-03T17:46:05.760Z,9.90
2023-03-03T17:48:51.530Z,10.10
2023-03-03T17:51:44.935Z,10.63
2023-03-03T17:54:31.053Z,12.47
2023-03-03T17:57:08.973Z,9.33
2023-03-03T17:59:47.427Z,10.10
2023-03-03T18:02:33.557Z,11.43
2023-03-03T18:05:01.336Z,10.77
2023-03-03T18:07:36.903Z,11.43
2023-03-03T18:10:15.071Z,10.07
2023-03-03T18:13:07.071Z,10.77
2023-03-03T18:15:37.225Z,10.33
2023-03-03T18:18:23.094Z,11.43
2023-03-03T18:21:05.235Z,9.60
2023-03-03T18:23:32.425Z,9.80
2023-03-03T18:26:00.934Z,9.60
2023-03-03T18:28:38.168Z,10.20
2023-03-03T18:31:20.064Z,9.73
2023-03-03T18:34:07.728Z,11.27
2023-03-03T18:36:35.300Z,15.03
2023-03-03T18:39:03.369Z,14.25
2023-03-03T18:41:49.440Z,13.47
2023-03-03T18:44:30.110Z,13.27
2023-03-03T18:46:58.858Z,14.37
2023-03-03T18:49:45.064Z,13.87
2023-03-03T18:52:18.853Z,12.23
2023-03-03T18:54:59.507Z,13.40
2023-03-03T18:57:26.700Z,13.03
2023-03-03T19:00:14.129Z,12.40
2023-03-03T19:02:49.698Z,12.77
2023-03-03T19:05:20.202Z,13.00
2023-03-03T19:07:51.951Z,14.50
2023-03-03T19:10:22.016Z,13.73
2023-03-03T19:12:54.581Z,13.07
2023-03-03T19:15:35.997Z,12.40
2023-03-03T19:18:27.738Z,12.57
2023-03-03T19:20:58.052Z,12.63
2023-03-03T19:23:25.184Z,12.20
2023-03-03T19:26:11.130Z,11.90
2023-03-03T19:28:43.476Z,12.97
2023-03-03T19:31:29.908Z,11.87
2023-03-03T19:34:06.334Z,10.80
2023-03-03T19:36:55.638Z,10.67
2023-03-03T19:39:36.060Z,10.07
2023-03-03T19:42:06.389Z,13.77
2023-03-03T19:44:44.929Z,10.10
2023-03-03T19:47:12.163Z,8.20
2023-03-03T19:50:09.409Z,7.43
2023-03-03T19:52:45.368Z,8.87
2023-03-03T19:55:24.648Z,5.93
2023-03-03T19:57:57.804Z,6.07
2023-03-03T20:00:27.807Z,6.33
2023-03-03T20:03:11.766Z,5.40
2023-03-03T20:05:46.249Z,4.87
2023-03-03T20:08:20.506Z,4.50
2023-03-03T20:10:50.724Z,4.17
2023-03-03T20:13:17.955Z,4.10
2023-03-03T20:15:53.202Z,5.37
2023-03-03T20:18:38.990Z,4.90
2023-03-03T20:21:09.099Z,5.60
2023-03-03T20:23:59.498Z,4.90
2023-03-03T20:26:45.262Z,5.17
2023-03-03T20:29:21.339Z,4.90
2023-03-03T20:31:48.532Z,5.70
2023-03-03T20:34:15.739Z,5.33
2023-03-03T20:36:55.234Z,5.77
2023-03-03T20:39:41.195Z,5.33
2023-03-03T20:42:26.495Z,5.23
2023-03-03T20:44:56.438Z,4.93
2023-03-03T20:47:42.330Z,5.27
2023-03-03T20:50:24.715Z,5.20
2023-03-03T20:53:10.576Z,5.40
2023-03-03T20:55:49.173Z,5.50
2023-03-03T20:58:21.846Z,18.90
2023-03-03T21:00:58.120Z,6.33
2023-03-03T21:03:25.400Z,5.77
2023-03-03T21:05:58.774Z,5.67
2023-03-03T21:08:41.368Z,6.23
2023-03-03T21:11:08.527Z,5.97
2023-03-03T21:13:37.208Z,5.93
2023-03-03T21:16:10.898Z,5.10
2023-03-03T21:18:38.200Z,6.37
2023-03-03T21:21:05.560Z,6.10
2023-03-03T21:23:32.883Z,6.30
2023-03-03T21:26:00.042Z,6.57
2023-03-03T21:28:27.300Z,8.53
2023-03-03T21:31:08.072Z,7.93
2023-03-03T21:33:46.227Z,9.23
2023-03-03T21:36:14.819Z,10.40
2023-03-03T21:38:42.181Z,10.83
2023-03-03T21:41:10.131Z,10.53
2023-03-03T21:43:47.364Z,10.73
2023-03-03T21:46:18.214Z,11.33
2023-03-03T21:48:45.384Z,11.07
2023-03-03T21:51:15.583Z,7.63
2023-03-03T21:53:44.053Z,9.07
2023-03-03T21:56:13.568Z,8.93
2023-03-03T21:58:44.020Z,8.53
2023-03-03T22:01:11.221Z,7.90
2023-03-03T22:03:38.366Z,6.50
2023-03-03T22:06:05.698Z,7.33
2023-03-03T22:08:32.875Z,8.93
2023-03-03T22:11:00.148Z,7.00
2023-03-03T22:13:27.438Z,7.27
2023-03-03T22:15:55.323Z,6.80
2023-03-03T22:18:22.640Z,6.50
2023-03-03T22:20:50.657Z,4.70
2023-03-03T22:23:18.980Z,4.63
2023-03-03T22:25:46.637Z,5.27
2023-03-03T22:28:13.888Z,5.03
2023-03-03T22:30:41.094Z,6.03
2023-03-03T22:33:08.359Z,5.33
2023-03-03T22:35:35.645Z,5.07
2023-03-03T22:38:03.647Z,5.27
2023-03-03T22:40:31.953Z,5.57
2023-03-03T22:42:59.212Z,6.73
2023-03-03T22:45:26.364Z,5.63
2023-03-03T22:47:53.522Z,5.13
2023-03-03T22:50:20.729Z,5.47
2023-03-03T22:52:47.867Z,4.57
2023-03-03T22:55:15.018Z,4.43
2023-03-03T22:57:42.348Z,4.87
2023-03-03T23:00:11.603Z,4.67
2023-03-03T23:02:38.866Z,5.43
2023-03-03T23:05:08.599Z,5.67
2023-03-03T23:07:36.413Z,5.73
2023-03-03T23:10:04.349Z,6.00
2023-03-03T23:12:31.529Z,6.00
2023-03-03T23:14:58.684Z,5.37
2023-03-03T23:17:25.893Z,5.03
2023-03-03T23:19:53.147Z,4.93
2023-03-03T23:22:20.828Z,5.10
2023-03-03T23:24:48.002Z,5.03
2023-03-03T23:27:15.128Z,11.70
2023-03-03T23:29:42.296Z,4.90
2023-03-03T23:32:09.683Z,4.80
2023-03-03T23:34:36.836Z,4.20
2023-03-03T23:37:04.044Z,5.70
2023-03-03T23:39:31.190Z,5.17
2023-03-03T23:41:58.033Z,5.90
2023-03-03T23:44:25.251Z,5.90
2023-03-03T23:46:52.087Z,5.03
2023-03-03T23:49:18.965Z,5.37
2023-03-03T23:51:45.733Z,4.90
2023-03-03T23:54:12.942Z,5.20
2023-03-03T23:56:40.187Z,5.50
2023-03-03T23:59:07.340Z,4.40
